sensor_id;sensor_type;location;lat;lon;timestamp;temperature;humidity
61253;DHT22;47127;47.516;8.596;2022-12-18T00:01:52;-0.20;99.90
61253;DHT22;47127;47.516;8.596;2022-12-18T00:04:20;-0.30;99.90
61253;DHT22;47127;47.516;8.596;2022-12-18T00:06:46;-0.20;99.90
61253;DHT22;47127;47.516;8.596;2022-12-18T00:09:13;-0.30;99.90
61253;DHT22;47127;47.516;8.596;2022-12-18T00:11:38;-0.40;99.90
61253;DHT22;47127;47.516;8.596;2022-12-18T00:14:04;-0.40;99.90
61253;DHT22;47127;47.516;8.596;2022-12-18T00:16:29;-0.50;99.90
61253;DHT22;47127;47.516;8.596;2022-12-18T00:19:00;-0.50;99.90
61253;DHT22;47127;47.516;8.596;2022-12-18T00:21:26;-0.50;99.90
61253;DHT22;47127;47.516;8.596;2022-12-18T00:23:52;-0.50;99.90
61253;DHT22;47127;47.516;8.596;2022-12-18T00:26:19;-0.40;99.90
61253;DHT22;47127;47.516;8.596;2022-12-18T00:28:45;-0.40;99.90
61253;DHT22;47127;47.516;8.596;2022-12-18T00:31:11;-0.40;99.90
61253;DHT22;47127;47.516;8.596;2022-12-18T00:33:37;-0.40;99.90
61253;DHT22;47127;47.516;8.596;2022-12-18T00:36:07;-0.30;99.90
61253;DHT22;47127;47.516;8.596;2022-12-18T00:38:33;-0.30;99.90
61253;DHT22;47127;47.516;8.596;2022-12-18T00:40:59;-0.30;99.90
61253;DHT22;47127;47.516;8.596;2022-12-18T00:43:24;-0.40;99.90
61253;DHT22;47127;47.516;8.596;2022-12-18T00:45:50;-0.40;99.90
61253;DHT22;47127;47.516;8.596;2022-12-18T00:48:15;-0.50;99.90
61253;DHT22;47127;47.516;8.596;2022-12-18T00:50:41;-0.40;99.90
61253;DHT22;47127;47.516;8.596;2022-12-18T00:53:06;-0.50;99.90
61253;DHT22;47127;47.516;8.596;2022-12-18T00:55:32;-0.50;99.90
61253;DHT22;47127;47.516;8.596;2022-12-18T00:57:57;-0.40;99.90
61253;DHT22;47127;47.516;8.596;2022-12-18T01:00:23;-0.40;99.90
61253;DHT22;47127;47.516;8.596;2022-12-18T01:02:48;-0.50;99.90
61253;DHT22;47127;47.516;8.596;2022-12-18T01:05:14;-0.40;99.90
61253;DHT22;47127;47.516;8.596;2022-12-18T01:07:40;-0.40;99.90
61253;DHT22;47127;47.516;8.596;2022-12-18T01:10:06;-0.50;99.90
61253;DHT22;47127;47.516;8.596;2022-12-18T01:12:32;-0.60;99.90
61253;DHT22;47127;47.516;8.596;2022-12-18T01:14:57;-0.50;99.90
61253;DHT22;47127;47.516;8.596;2022-12-18T01:17:23;-0.40;99.90
61253;DHT22;47127;47.516;8.596;2022-12-18T01:19:49;-0.50;99.90
61253;DHT22;47127;47.516;8.596;2022-12-18T01:22:14;-0.50;99.90
61253;DHT22;47127;47.516;8.596;2022-12-18T01:24:40;-0.40;99.90
61253;DHT22;47127;47.516;8.596;2022-12-18T01:27:05;-0.50;99.90
61253;DHT22;47127;47.516;8.596;2022-12-18T01:29:31;-0.60;99.90
61253;DHT22;47127;47.516;8.596;2022-12-18T01:31:56;-0.50;99.90
61253;DHT22;47127;47.516;8.596;2022-12-18T01:34:22;-0.40;99.90
61253;DHT22;47127;47.516;8.596;2022-12-18T01:36:47;-0.40;99.90
61253;DHT22;47127;47.516;8.596;2022-12-18T01:39:14;-0.30;99.90
61253;DHT22;47127;47.516;8.596;2022-12-18T01:41:40;-0.30;99.90
61253;DHT22;47127;47.516;8.596;2022-12-18T01:47:08;-0.40;99.90
61253;DHT22;47127;47.516;8.596;2022-12-18T01:49:33;-0.30;99.90
61253;DHT22;47127;47.516;8.596;2022-12-18T01:51:59;-0.30;99.90
61253;DHT22;47127;47.516;8.596;2022-12-18T01:54:24;-0.30;99.90
61253;DHT22;47127;47.516;8.596;2022-12-18T01:56:49;-0.40;99.90
61253;DHT22;47127;47.516;8.596;2022-12-18T01:59:15;-0.40;99.90
61253;DHT22;47127;47.516;8.596;2022-12-18T02:01:41;-0.40;99.90
61253;DHT22;47127;47.516;8.596;2022-12-18T02:04:22;-0.40;99.90
61253;DHT22;47127;47.516;8.596;2022-12-18T02:06:50;-0.40;99.90
61253;DHT22;47127;47.516;8.596;2022-12-18T02:09:21;-0.40;99.90
61253;DHT22;47127;47.516;8.596;2022-12-18T02:11:53;-0.40;99.90
61253;DHT22;47127;47.516;8.596;2022-12-18T02:14:26;-0.40;99.90
61253;DHT22;47127;47.516;8.596;2022-12-18T02:19:39;-0.50;99.90
61253;DHT22;47127;47.516;8.596;2022-12-18T02:22:13;-0.40;99.90
61253;DHT22;47127;47.516;8.596;2022-12-18T02:27:08;-0.40;99.90
61253;DHT22;47127;47.516;8.596;2022-12-18T02:29:39;-0.40;99.90
61253;DHT22;47127;47.516;8.596;2022-12-18T02:32:06;-0.40;99.90
61253;DHT22;47127;47.516;8.596;2022-12-18T02:34:34;-0.40;99.90
61253;DHT22;47127;47.516;8.596;2022-12-18T02:37:02;-0.40;99.90
61253;DHT22;47127;47.516;8.596;2022-12-18T02:39:30;-0.30;99.90
61253;DHT22;47127;47.516;8.596;2022-12-18T02:41:56;-0.30;99.90
61253;DHT22;47127;47.516;8.596;2022-12-18T02:44:22;-0.40;99.90
61253;DHT22;47127;47.516;8.596;2022-12-18T02:46:51;-0.40;99.90
61253;DHT22;47127;47.516;8.596;2022-12-18T02:56:52;-0.50;99.90
61253;DHT22;47127;47.516;8.596;2022-12-18T02:59:30;-0.50;99.90
61253;DHT22;47127;47.516;8.596;2022-12-18T03:02:02;-0.40;99.90
61253;DHT22;47127;47.516;8.596;2022-12-18T03:04:38;-0.40;99.90
61253;DHT22;47127;47.516;8.596;2022-12-18T03:07:07;-0.40;99.90
61253;DHT22;47127;47.516;8.596;2022-12-18T03:09:34;-0.40;99.90
61253;DHT22;47127;47.516;8.596;2022-12-18T03:12:07;-0.40;99.90
61253;DHT22;47127;47.516;8.596;2022-12-18T03:14:55;-0.40;99.90
61253;DHT22;47127;47.516;8.596;2022-12-18T03:17:22;-0.40;99.90
61253;DHT22;47127;47.516;8.596;2022-12-18T03:19:48;-0.40;99.90
61253;DHT22;47127;47.516;8.596;2022-12-18T03:22:14;-0.40;99.90
61253;DHT22;47127;47.516;8.596;2022-12-18T03:24:41;-0.40;99.90
61253;DHT22;47127;47.516;8.596;2022-12-18T03:27:08;-0.40;99.90
61253;DHT22;47127;47.516;8.596;2022-12-18T03:29:36;-0.40;99.90
61253;DHT22;47127;47.516;8.596;2022-12-18T03:32:18;-0.30;99.90
61253;DHT22;47127;47.516;8.596;2022-12-18T03:34:46;-0.40;99.90
61253;DHT22;47127;47.516;8.596;2022-12-18T03:37:13;-0.40;99.90
61253;DHT22;47127;47.516;8.596;2022-12-18T03:39:38;-0.30;99.90
61253;DHT22;47127;47.516;8.596;2022-12-18T03:44:36;-0.40;99.90
61253;DHT22;47127;47.516;8.596;2022-12-18T03:47:10;-0.30;99.90
61253;DHT22;47127;47.516;8.596;2022-12-18T03:49:38;-0.20;99.90
61253;DHT22;47127;47.516;8.596;2022-12-18T03:54:51;-0.30;99.90
61253;DHT22;47127;47.516;8.596;2022-12-18T03:57:18;-0.30;99.90
61253;DHT22;47127;47.516;8.596;2022-12-18T03:59:45;-0.30;99.90
61253;DHT22;47127;47.516;8.596;2022-12-18T04:02:12;-0.30;99.90
61253;DHT22;47127;47.516;8.596;2022-12-18T04:04:39;-0.30;99.90
61253;DHT22;47127;47.516;8.596;2022-12-18T04:07:05;-0.30;99.90
61253;DHT22;47127;47.516;8.596;2022-12-18T04:09:31;-0.30;99.90
61253;DHT22;47127;47.516;8.596;2022-12-18T04:11:57;-0.30;99.90
61253;DHT22;47127;47.516;8.596;2022-12-18T04:14:22;-0.30;99.90
61253;DHT22;47127;47.516;8.596;2022-12-18T04:16:48;-0.20;99.90
61253;DHT22;47127;47.516;8.596;2022-12-18T04:19:13;-0.30;99.90
61253;DHT22;47127;47.516;8.596;2022-12-18T04:21:39;-0.30;99.90
61253;DHT22;47127;47.516;8.596;2022-12-18T04:24:04;-0.30;99.90
61253;DHT22;47127;47.516;8.596;2022-12-18T04:26:30;-0.30;99.90
61253;DHT22;47127;47.516;8.596;2022-12-18T04:28:55;-0.20;99.90
61253;DHT22;47127;47.516;8.596;2022-12-18T04:31:21;-0.20;99.90
61253;DHT22;47127;47.516;8.596;2022-12-18T04:33:46;-0.30;99.90
61253;DHT22;47127;47.516;8.596;2022-12-18T04:36:12;-0.30;99.90
61253;DHT22;47127;47.516;8.596;2022-12-18T04:38:37;-0.30;99.90
61253;DHT22;47127;47.516;8.596;2022-12-18T04:41:03;-0.20;99.90
61253;DHT22;47127;47.516;8.596;2022-12-18T04:43:28;-0.30;99.90
61253;DHT22;47127;47.516;8.596;2022-12-18T04:46:00;-0.20;99.90
61253;DHT22;47127;47.516;8.596;2022-12-18T04:48:26;-0.20;99.90
61253;DHT22;47127;47.516;8.596;2022-12-18T04:50:51;-0.20;99.90
61253;DHT22;47127;47.516;8.596;2022-12-18T04:53:16;-0.30;99.90
61253;DHT22;47127;47.516;8.596;2022-12-18T04:55:42;-0.40;99.90
61253;DHT22;47127;47.516;8.596;2022-12-18T04:58:08;-0.40;99.90
61253;DHT22;47127;47.516;8.596;2022-12-18T05:00:33;-0.40;99.90
61253;DHT22;47127;47.516;8.596;2022-12-18T05:03:00;-0.50;99.90
61253;DHT22;47127;47.516;8.596;2022-12-18T05:05:25;-0.40;99.90
61253;DHT22;47127;47.516;8.596;2022-12-18T05:07:51;-0.40;99.90
61253;DHT22;47127;47.516;8.596;2022-12-18T05:10:16;-0.40;99.90
61253;DHT22;47127;47.516;8.596;2022-12-18T05:12:42;-0.30;99.90
61253;DHT22;47127;47.516;8.596;2022-12-18T05:15:27;-0.30;99.90
61253;DHT22;47127;47.516;8.596;2022-12-18T05:17:52;-0.30;99.90
61253;DHT22;47127;47.516;8.596;2022-12-18T05:20:18;-0.30;99.90
61253;DHT22;47127;47.516;8.596;2022-12-18T05:22:43;-0.30;99.90
61253;DHT22;47127;47.516;8.596;2022-12-18T05:25:09;-0.20;99.90
61253;DHT22;47127;47.516;8.596;2022-12-18T05:27:34;-0.30;99.90
61253;DHT22;47127;47.516;8.596;2022-12-18T05:30:00;-0.30;99.90
61253;DHT22;47127;47.516;8.596;2022-12-18T05:32:25;-0.30;99.90
61253;DHT22;47127;47.516;8.596;2022-12-18T05:34:50;-0.30;99.90
61253;DHT22;47127;47.516;8.596;2022-12-18T05:37:16;-0.30;99.90
61253;DHT22;47127;47.516;8.596;2022-12-18T05:39:42;-0.30;99.90
61253;DHT22;47127;47.516;8.596;2022-12-18T05:42:07;-0.20;99.90
61253;DHT22;47127;47.516;8.596;2022-12-18T05:44:33;-0.20;99.90
61253;DHT22;47127;47.516;8.596;2022-12-18T05:46:59;-0.20;99.90
61253;DHT22;47127;47.516;8.596;2022-12-18T05:49:24;-0.20;99.90
61253;DHT22;47127;47.516;8.596;2022-12-18T05:51:50;-0.30;99.90
61253;DHT22;47127;47.516;8.596;2022-12-18T05:54:15;-0.30;99.90
61253;DHT22;47127;47.516;8.596;2022-12-18T05:56:41;-0.20;99.90
61253;DHT22;47127;47.516;8.596;2022-12-18T05:59:06;-0.20;99.90
61253;DHT22;47127;47.516;8.596;2022-12-18T06:01:31;-0.20;99.90
61253;DHT22;47127;47.516;8.596;2022-12-18T06:03:57;-0.20;99.90
61253;DHT22;47127;47.516;8.596;2022-12-18T06:06:24;-0.20;99.90
61253;DHT22;47127;47.516;8.596;2022-12-18T06:08:50;-0.20;99.90
61253;DHT22;47127;47.516;8.596;2022-12-18T06:11:16;-0.20;99.90
61253;DHT22;47127;47.516;8.596;2022-12-18T06:13:42;-0.20;99.90
61253;DHT22;47127;47.516;8.596;2022-12-18T06:16:07;-0.20;99.90
61253;DHT22;47127;47.516;8.596;2022-12-18T06:18:33;-0.20;99.90
61253;DHT22;47127;47.516;8.596;2022-12-18T06:20:59;-0.10;99.90
61253;DHT22;47127;47.516;8.596;2022-12-18T06:23:24;-0.10;99.90
61253;DHT22;47127;47.516;8.596;2022-12-18T06:25:50;-0.10;99.90
61253;DHT22;47127;47.516;8.596;2022-12-18T06:28:16;-0.10;99.90
61253;DHT22;47127;47.516;8.596;2022-12-18T06:30:45;-0.10;99.90
61253;DHT22;47127;47.516;8.596;2022-12-18T06:33:10;-0.20;99.90
61253;DHT22;47127;47.516;8.596;2022-12-18T06:35:36;-0.20;99.90
61253;DHT22;47127;47.516;8.596;2022-12-18T06:38:02;-0.20;99.90
61253;DHT22;47127;47.516;8.596;2022-12-18T06:40:27;-0.20;99.90
61253;DHT22;47127;47.516;8.596;2022-12-18T06:42:53;-0.20;99.90
61253;DHT22;47127;47.516;8.596;2022-12-18T06:45:18;-0.20;99.90
61253;DHT22;47127;47.516;8.596;2022-12-18T06:47:44;-0.20;99.90
61253;DHT22;47127;47.516;8.596;2022-12-18T06:50:09;-0.20;99.90
61253;DHT22;47127;47.516;8.596;2022-12-18T06:52:35;-0.20;99.90
61253;DHT22;47127;47.516;8.596;2022-12-18T06:55:02;-0.20;99.90
61253;DHT22;47127;47.516;8.596;2022-12-18T06:57:27;-0.20;99.90
61253;DHT22;47127;47.516;8.596;2022-12-18T06:59:53;-0.20;99.90
61253;DHT22;47127;47.516;8.596;2022-12-18T07:02:18;-0.30;99.90
61253;DHT22;47127;47.516;8.596;2022-12-18T07:04:43;-0.30;99.90
61253;DHT22;47127;47.516;8.596;2022-12-18T07:07:09;-0.30;99.90
61253;DHT22;47127;47.516;8.596;2022-12-18T07:09:34;-0.30;99.90
61253;DHT22;47127;47.516;8.596;2022-12-18T07:12:00;-0.30;99.90
61253;DHT22;47127;47.516;8.596;2022-12-18T07:14:25;-0.40;99.90
61253;DHT22;47127;47.516;8.596;2022-12-18T07:16:51;-0.30;99.90
61253;DHT22;47127;47.516;8.596;2022-12-18T07:19:16;-0.30;99.90
61253;DHT22;47127;47.516;8.596;2022-12-18T07:21:42;-0.30;99.90
61253;DHT22;47127;47.516;8.596;2022-12-18T07:24:07;-0.30;99.90
61253;DHT22;47127;47.516;8.596;2022-12-18T07:26:32;-0.20;99.90
61253;DHT22;47127;47.516;8.596;2022-12-18T07:28:58;-0.20;99.90
61253;DHT22;47127;47.516;8.596;2022-12-18T07:31:24;-0.20;99.90
61253;DHT22;47127;47.516;8.596;2022-12-18T07:33:50;-0.10;99.90
61253;DHT22;47127;47.516;8.596;2022-12-18T07:36:16;-0.20;99.90
61253;DHT22;47127;47.516;8.596;2022-12-18T07:38:41;-0.20;99.90
61253;DHT22;47127;47.516;8.596;2022-12-18T07:41:11;-0.20;99.90
61253;DHT22;47127;47.516;8.596;2022-12-18T07:43:36;-0.10;99.90
61253;DHT22;47127;47.516;8.596;2022-12-18T07:46:02;0.10;99.90
61253;DHT22;47127;47.516;8.596;2022-12-18T07:48:31;0.00;99.90
61253;DHT22;47127;47.516;8.596;2022-12-18T07:51:03;0.00;99.90
61253;DHT22;47127;47.516;8.596;2022-12-18T07:53:29;0.00;99.90
61253;DHT22;47127;47.516;8.596;2022-12-18T07:55:59;0.00;99.90
61253;DHT22;47127;47.516;8.596;2022-12-18T07:58:25;0.10;99.90
61253;DHT22;47127;47.516;8.596;2022-12-18T08:00:50;0.00;99.90
61253;DHT22;47127;47.516;8.596;2022-12-18T08:03:16;0.00;99.90
61253;DHT22;47127;47.516;8.596;2022-12-18T08:05:41;0.20;99.90
61253;DHT22;47127;47.516;8.596;2022-12-18T08:08:07;0.20;99.90
61253;DHT22;47127;47.516;8.596;2022-12-18T08:10:32;0.30;99.90
61253;DHT22;47127;47.516;8.596;2022-12-18T08:12:57;0.30;99.90
61253;DHT22;47127;47.516;8.596;2022-12-18T08:15:23;0.20;99.90
61253;DHT22;47127;47.516;8.596;2022-12-18T08:17:49;0.20;99.90
61253;DHT22;47127;47.516;8.596;2022-12-18T08:20:14;0.20;99.90
61253;DHT22;47127;47.516;8.596;2022-12-18T08:22:43;0.30;99.90
61253;DHT22;47127;47.516;8.596;2022-12-18T08:25:09;0.20;99.90
61253;DHT22;47127;47.516;8.596;2022-12-18T08:27:34;0.30;99.90
61253;DHT22;47127;47.516;8.596;2022-12-18T08:30:00;0.30;99.90
61253;DHT22;47127;47.516;8.596;2022-12-18T08:32:26;0.30;99.90
61253;DHT22;47127;47.516;8.596;2022-12-18T08:34:51;0.20;99.90
61253;DHT22;47127;47.516;8.596;2022-12-18T08:37:17;0.10;99.90
61253;DHT22;47127;47.516;8.596;2022-12-18T08:39:42;0.20;99.90
61253;DHT22;47127;47.516;8.596;2022-12-18T08:42:08;0.30;99.90
61253;DHT22;47127;47.516;8.596;2022-12-18T08:44:52;0.30;99.90
61253;DHT22;47127;47.516;8.596;2022-12-18T08:47:17;0.30;99.90
61253;DHT22;47127;47.516;8.596;2022-12-18T08:49:42;0.30;99.90
61253;DHT22;47127;47.516;8.596;2022-12-18T08:52:08;0.40;99.90
61253;DHT22;47127;47.516;8.596;2022-12-18T08:54:34;0.40;99.90
61253;DHT22;47127;47.516;8.596;2022-12-18T08:57:00;0.40;99.90
61253;DHT22;47127;47.516;8.596;2022-12-18T08:59:25;0.30;99.90
61253;DHT22;47127;47.516;8.596;2022-12-18T09:01:53;0.20;99.90
61253;DHT22;47127;47.516;8.596;2022-12-18T09:04:18;0.30;99.90
61253;DHT22;47127;47.516;8.596;2022-12-18T09:06:44;0.50;99.90
61253;DHT22;47127;47.516;8.596;2022-12-18T09:09:09;0.60;99.90
61253;DHT22;47127;47.516;8.596;2022-12-18T09:11:35;0.50;99.90
61253;DHT22;47127;47.516;8.596;2022-12-18T09:14:00;0.50;99.90
61253;DHT22;47127;47.516;8.596;2022-12-18T09:16:26;0.60;99.90
61253;DHT22;47127;47.516;8.596;2022-12-18T09:18:54;0.60;99.90
61253;DHT22;47127;47.516;8.596;2022-12-18T09:21:24;0.60;99.90
61253;DHT22;47127;47.516;8.596;2022-12-18T09:23:50;0.60;99.90
61253;DHT22;47127;47.516;8.596;2022-12-18T09:26:16;0.50;99.90
61253;DHT22;47127;47.516;8.596;2022-12-18T09:28:42;0.50;99.90
61253;DHT22;47127;47.516;8.596;2022-12-18T09:31:08;0.40;99.90
61253;DHT22;47127;47.516;8.596;2022-12-18T09:33:36;0.40;99.90
61253;DHT22;47127;47.516;8.596;2022-12-18T09:36:02;0.50;99.90
61253;DHT22;47127;47.516;8.596;2022-12-18T09:38:28;0.60;99.90
61253;DHT22;47127;47.516;8.596;2022-12-18T09:40:56;0.80;99.90
61253;DHT22;47127;47.516;8.596;2022-12-18T09:43:33;0.80;99.90
61253;DHT22;47127;47.516;8.596;2022-12-18T09:46:01;0.90;99.90
61253;DHT22;47127;47.516;8.596;2022-12-18T09:48:30;0.90;99.90
61253;DHT22;47127;47.516;8.596;2022-12-18T09:51:04;1.00;99.90
61253;DHT22;47127;47.516;8.596;2022-12-18T09:53:33;0.80;99.90
61253;DHT22;47127;47.516;8.596;2022-12-18T09:56:00;0.80;99.90
61253;DHT22;47127;47.516;8.596;2022-12-18T09:58:28;0.90;99.90
61253;DHT22;47127;47.516;8.596;2022-12-18T10:00:55;0.90;99.90
61253;DHT22;47127;47.516;8.596;2022-12-18T10:03:21;0.80;99.90
61253;DHT22;47127;47.516;8.596;2022-12-18T10:06:03;0.80;99.90
61253;DHT22;47127;47.516;8.596;2022-12-18T10:11:21;0.80;99.90
61253;DHT22;47127;47.516;8.596;2022-12-18T10:13:51;0.80;99.90
61253;DHT22;47127;47.516;8.596;2022-12-18T10:16:19;0.80;99.90
61253;DHT22;47127;47.516;8.596;2022-12-18T10:24:08;0.80;99.90
61253;DHT22;47127;47.516;8.596;2022-12-18T10:26:39;0.90;99.90
61253;DHT22;47127;47.516;8.596;2022-12-18T10:29:09;0.90;99.90
61253;DHT22;47127;47.516;8.596;2022-12-18T10:31:36;0.90;99.90
61253;DHT22;47127;47.516;8.596;2022-12-18T10:34:01;0.90;99.90
61253;DHT22;47127;47.516;8.596;2022-12-18T10:36:27;1.00;99.90
61253;DHT22;47127;47.516;8.596;2022-12-18T10:38:52;1.00;99.90
61253;DHT22;47127;47.516;8.596;2022-12-18T10:43:44;1.10;99.90
61253;DHT22;47127;47.516;8.596;2022-12-18T10:51:20;1.20;99.90
61253;DHT22;47127;47.516;8.596;2022-12-18T10:53:51;1.30;99.90
61253;DHT22;47127;47.516;8.596;2022-12-18T10:56:19;1.30;99.90
61253;DHT22;47127;47.516;8.596;2022-12-18T10:58:44;1.20;99.90
61253;DHT22;47127;47.516;8.596;2022-12-18T11:01:20;1.30;99.90
61253;DHT22;47127;47.516;8.596;2022-12-18T11:03:47;1.30;99.90
61253;DHT22;47127;47.516;8.596;2022-12-18T11:06:23;1.40;99.90
61253;DHT22;47127;47.516;8.596;2022-12-18T11:11:24;1.40;99.90
61253;DHT22;47127;47.516;8.596;2022-12-18T11:13:56;1.40;99.90
61253;DHT22;47127;47.516;8.596;2022-12-18T11:16:24;1.50;99.90
61253;DHT22;47127;47.516;8.596;2022-12-18T11:18:50;1.50;99.90
61253;DHT22;47127;47.516;8.596;2022-12-18T11:21:16;1.60;99.90
61253;DHT22;47127;47.516;8.596;2022-12-18T11:23:46;1.50;99.90
61253;DHT22;47127;47.516;8.596;2022-12-18T11:26:12;1.50;99.90
61253;DHT22;47127;47.516;8.596;2022-12-18T11:33:52;1.60;99.90
61253;DHT22;47127;47.516;8.596;2022-12-18T11:36:19;1.60;99.90
61253;DHT22;47127;47.516;8.596;2022-12-18T11:38:45;1.60;99.90
61253;DHT22;47127;47.516;8.596;2022-12-18T11:41:29;1.60;99.90
61253;DHT22;47127;47.516;8.596;2022-12-18T11:44:19;1.60;99.90
61253;DHT22;47127;47.516;8.596;2022-12-18T11:46:49;1.50;99.90
61253;DHT22;47127;47.516;8.596;2022-12-18T11:49:24;1.40;99.90
61253;DHT22;47127;47.516;8.596;2022-12-18T11:54:22;1.40;99.90
61253;DHT22;47127;47.516;8.596;2022-12-18T11:56:51;1.40;99.90
61253;DHT22;47127;47.516;8.596;2022-12-18T11:59:31;1.50;99.90
61253;DHT22;47127;47.516;8.596;2022-12-18T12:02:02;1.30;99.90
61253;DHT22;47127;47.516;8.596;2022-12-18T12:04:35;1.30;99.90
61253;DHT22;47127;47.516;8.596;2022-12-18T12:09:45;1.40;99.90
61253;DHT22;47127;47.516;8.596;2022-12-18T12:20:20;1.70;99.90
61253;DHT22;47127;47.516;8.596;2022-12-18T12:23:02;1.80;99.90
61253;DHT22;47127;47.516;8.596;2022-12-18T12:25:40;1.80;99.90
61253;DHT22;47127;47.516;8.596;2022-12-18T12:28:19;1.60;99.90
61253;DHT22;47127;47.516;8.596;2022-12-18T12:35:51;1.60;99.90
61253;DHT22;47127;47.516;8.596;2022-12-18T12:40:47;1.70;99.90
61253;DHT22;47127;47.516;8.596;2022-12-18T12:43:20;1.60;99.90
61253;DHT22;47127;47.516;8.596;2022-12-18T12:45:54;1.50;99.90
61253;DHT22;47127;47.516;8.596;2022-12-18T12:48:34;1.70;99.90
61253;DHT22;47127;47.516;8.596;2022-12-18T12:51:00;1.60;99.90
61253;DHT22;47127;47.516;8.596;2022-12-18T12:53:29;1.70;99.90
61253;DHT22;47127;47.516;8.596;2022-12-18T12:55:55;1.70;99.90
61253;DHT22;47127;47.516;8.596;2022-12-18T12:58:39;1.70;99.90
61253;DHT22;47127;47.516;8.596;2022-12-18T13:03:56;1.70;99.90
61253;DHT22;47127;47.516;8.596;2022-12-18T13:06:27;1.60;99.90
61253;DHT22;47127;47.516;8.596;2022-12-18T13:08:56;1.60;99.90
61253;DHT22;47127;47.516;8.596;2022-12-18T13:14:22;1.60;99.90
61253;DHT22;47127;47.516;8.596;2022-12-18T13:16:48;1.70;99.90
61253;DHT22;47127;47.516;8.596;2022-12-18T13:19:21;1.70;99.90
61253;DHT22;47127;47.516;8.596;2022-12-18T13:21:52;1.60;99.90
61253;DHT22;47127;47.516;8.596;2022-12-18T13:24:26;1.70;99.90
61253;DHT22;47127;47.516;8.596;2022-12-18T13:26:52;1.70;99.90
61253;DHT22;47127;47.516;8.596;2022-12-18T13:32:01;1.70;99.90
61253;DHT22;47127;47.516;8.596;2022-12-18T13:34:28;1.70;99.90
61253;DHT22;47127;47.516;8.596;2022-12-18T13:37:33;1.70;99.90
61253;DHT22;47127;47.516;8.596;2022-12-18T13:39:42;1.70;99.90
61253;DHT22;47127;47.516;8.596;2022-12-18T13:44:34;1.70;99.90
61253;DHT22;47127;47.516;8.596;2022-12-18T13:47:01;1.60;99.90
61253;DHT22;47127;47.516;8.596;2022-12-18T13:49:45;1.60;99.90
61253;DHT22;47127;47.516;8.596;2022-12-18T13:52:22;1.70;99.90
61253;DHT22;47127;47.516;8.596;2022-12-18T13:54:57;1.60;99.90
61253;DHT22;47127;47.516;8.596;2022-12-18T13:57:34;1.70;99.90
61253;DHT22;47127;47.516;8.596;2022-12-18T14:02:44;1.70;99.90
61253;DHT22;47127;47.516;8.596;2022-12-18T14:05:21;1.70;99.90
61253;DHT22;47127;47.516;8.596;2022-12-18T14:07:46;1.70;99.90
61253;DHT22;47127;47.516;8.596;2022-12-18T14:10:12;1.70;99.90
61253;DHT22;47127;47.516;8.596;2022-12-18T14:12:38;1.60;99.90
61253;DHT22;47127;47.516;8.596;2022-12-18T14:17:58;1.60;99.90
61253;DHT22;47127;47.516;8.596;2022-12-18T14:20:24;1.60;99.90
61253;DHT22;47127;47.516;8.596;2022-12-18T14:22:50;1.60;99.90
61253;DHT22;47127;47.516;8.596;2022-12-18T14:25:17;1.70;99.90
61253;DHT22;47127;47.516;8.596;2022-12-18T14:27:45;1.70;99.90
61253;DHT22;47127;47.516;8.596;2022-12-18T14:30:24;1.60;99.90
61253;DHT22;47127;47.516;8.596;2022-12-18T14:33:00;1.60;99.90
61253;DHT22;47127;47.516;8.596;2022-12-18T14:35:26;1.60;99.90
61253;DHT22;47127;47.516;8.596;2022-12-18T14:37:52;1.50;99.90
61253;DHT22;47127;47.516;8.596;2022-12-18T14:40:17;1.40;99.90
61253;DHT22;47127;47.516;8.596;2022-12-18T14:42:43;1.50;99.90
61253;DHT22;47127;47.516;8.596;2022-12-18T14:45:31;1.50;99.90
61253;DHT22;47127;47.516;8.596;2022-12-18T14:47:58;1.40;99.90
61253;DHT22;47127;47.516;8.596;2022-12-18T14:50:24;1.40;99.90
61253;DHT22;47127;47.516;8.596;2022-12-18T14:52:49;1.40;99.90
61253;DHT22;47127;47.516;8.596;2022-12-18T14:55:16;1.50;99.90
61253;DHT22;47127;47.516;8.596;2022-12-18T14:57:42;1.40;99.90
61253;DHT22;47127;47.516;8.596;2022-12-18T15:00:16;1.50;99.90
61253;DHT22;47127;47.516;8.596;2022-12-18T15:02:42;1.50;99.90
61253;DHT22;47127;47.516;8.596;2022-12-18T15:07:40;1.40;99.90
61253;DHT22;47127;47.516;8.596;2022-12-18T15:12:39;1.40;99.90
61253;DHT22;47127;47.516;8.596;2022-12-18T15:15:43;1.20;99.90
61253;DHT22;47127;47.516;8.596;2022-12-18T15:17:58;1.20;99.90
61253;DHT22;47127;47.516;8.596;2022-12-18T15:20:23;1.20;99.90
61253;DHT22;47127;47.516;8.596;2022-12-18T15:22:49;1.20;99.90
61253;DHT22;47127;47.516;8.596;2022-12-18T15:25:27;1.20;99.90
61253;DHT22;47127;47.516;8.596;2022-12-18T15:27:54;1.20;99.90
61253;DHT22;47127;47.516;8.596;2022-12-18T15:30:23;1.30;99.90
61253;DHT22;47127;47.516;8.596;2022-12-18T15:32:49;1.20;99.90
61253;DHT22;47127;47.516;8.596;2022-12-18T15:35:16;1.30;99.90
61253;DHT22;47127;47.516;8.596;2022-12-18T15:37:43;1.10;99.90
61253;DHT22;47127;47.516;8.596;2022-12-18T15:40:12;1.10;99.90
61253;DHT22;47127;47.516;8.596;2022-12-18T15:42:37;1.00;99.90
61253;DHT22;47127;47.516;8.596;2022-12-18T15:45:21;1.10;99.90
61253;DHT22;47127;47.516;8.596;2022-12-18T15:47:47;1.10;99.90
61253;DHT22;47127;47.516;8.596;2022-12-18T15:50:12;1.20;99.90
61253;DHT22;47127;47.516;8.596;2022-12-18T15:52:45;1.20;99.90
61253;DHT22;47127;47.516;8.596;2022-12-18T15:55:11;1.20;99.90
61253;DHT22;47127;47.516;8.596;2022-12-18T15:57:55;1.10;99.90
61253;DHT22;47127;47.516;8.596;2022-12-18T16:00:21;1.00;99.90
61253;DHT22;47127;47.516;8.596;2022-12-18T16:02:47;1.00;99.90
61253;DHT22;47127;47.516;8.596;2022-12-18T16:05:16;1.00;99.90
61253;DHT22;47127;47.516;8.596;2022-12-18T16:07:42;0.90;99.90
61253;DHT22;47127;47.516;8.596;2022-12-18T16:10:08;0.80;99.90
61253;DHT22;47127;47.516;8.596;2022-12-18T16:12:33;0.70;99.90
61253;DHT22;47127;47.516;8.596;2022-12-18T16:14:59;0.70;99.90
61253;DHT22;47127;47.516;8.596;2022-12-18T16:17:24;0.80;99.90
61253;DHT22;47127;47.516;8.596;2022-12-18T16:19:50;0.90;99.90
61253;DHT22;47127;47.516;8.596;2022-12-18T16:22:19;0.90;99.90
61253;DHT22;47127;47.516;8.596;2022-12-18T16:24:46;0.90;99.90
61253;DHT22;47127;47.516;8.596;2022-12-18T16:27:11;0.80;99.90
61253;DHT22;47127;47.516;8.596;2022-12-18T16:29:37;0.80;99.90
61253;DHT22;47127;47.516;8.596;2022-12-18T16:32:02;0.80;99.90
61253;DHT22;47127;47.516;8.596;2022-12-18T16:34:32;1.00;99.90
61253;DHT22;47127;47.516;8.596;2022-12-18T16:36:59;0.90;99.90
61253;DHT22;47127;47.516;8.596;2022-12-18T16:39:26;0.90;99.90
61253;DHT22;47127;47.516;8.596;2022-12-18T16:41:51;0.80;99.90
61253;DHT22;47127;47.516;8.596;2022-12-18T16:44:17;0.90;99.90
61253;DHT22;47127;47.516;8.596;2022-12-18T16:46:42;0.90;99.90
61253;DHT22;47127;47.516;8.596;2022-12-18T16:49:10;0.70;99.90
61253;DHT22;47127;47.516;8.596;2022-12-18T16:51:36;0.70;99.90
61253;DHT22;47127;47.516;8.596;2022-12-18T16:54:02;0.60;99.90
61253;DHT22;47127;47.516;8.596;2022-12-18T16:56:27;0.70;99.90
61253;DHT22;47127;47.516;8.596;2022-12-18T16:58:53;0.60;99.90
61253;DHT22;47127;47.516;8.596;2022-12-18T17:01:19;0.60;99.90
61253;DHT22;47127;47.516;8.596;2022-12-18T17:03:51;0.40;99.90
61253;DHT22;47127;47.516;8.596;2022-12-18T17:06:18;0.40;99.90
61253;DHT22;47127;47.516;8.596;2022-12-18T17:08:43;0.30;99.90
61253;DHT22;47127;47.516;8.596;2022-12-18T17:11:09;0.40;99.90